x

South Brooks (46132) Wave Buoy

2:00 - Sat 21st Jan 2017 All times are PST. -8 hours from GMT.

  • Sig Wave height 16.1ft
  • Peak Period 17s
  • Wind
    27mph, 34mph gusts
  • Sea Temp 47°f
  • Air Temp 47°f
  • Sea Pressure 990.8mb
  • South Brooks
  • South Brooks

More Historic Weather Station data

Upgrade to MSW Pro to gain access to the past 30 days of data for over 8000 Wavebouys and Weather Stations around the globe.

Join Pro

Comparision Forecast

View Surf forecast
   
sam. 01/21 2:00 16ft 17s 27 34 mph 990.8mb 47f 47f
1:00 16ft 16s 27 34 mph 990.7mb 47f 47f
12:00 15ft 14s 29 36 mph 990.3mb 47f 47f
11:00 17.5ft 16s 27 31 mph 990.1mb 47f 47f
10:00 15.5ft 17s 27 36 mph 989.5mb 47f 47f
9:00 15ft 15s 25 31 mph 988.9mb 47f 47f
8:00 16ft 15s 22 29 mph 988.3mb 47f 47f
7:00 15ft 17s 20 27 mph 988.1mb 47f 47f
6:00 15ft 18s 22 31 mph 987.7mb 47f 47f
5:00 14.5ft 18s 22 29 mph 987.4mb 47f 47f
4:00 16ft 17s 18 25 mph 987.4mb 47f 47f
3:00 14ft 17s 16 22 mph 987.5mb 47f 47f
2:00 14ft 20s 11 16 mph 987.3mb 47f 48f
1:00 14ft 20s 11 18 mph 987.2mb 47f 48f
12:00 14ft 21s 13 20 mph 987mb 47f 47f
ven. 01/20 11:00 13ft 10s 13 20 mph 986.9mb 47f 48f
10:00 12ft 9s 9 13 mph 986.8mb 47f 48f
9:00 11ft 10s 11 16 mph 986.4mb 47f 48f
8:00 12ft 9s 9 13 mph 985.8mb 47f 48f
7:00 11ft 9s 11 16 mph 985.3mb 47f 49f
6:00 10.5ft 8s 13 20 mph 984.7mb 47f 49f
5:00 11ft 14s 9 13 mph 984.6mb 47f 49f
4:00 11.5ft 15s 7 11 mph 984.7mb 47f 49f
3:00 11ft 15s 9 11 mph 984.6mb 47f 48f
2:00 11ft 14s 9 11 mph 984.7mb 47f 48f
1:00 12ft 14s 9 13 mph 985mb 47f 48f
12:00 12.5ft 16s 9 16 mph 985.3mb 47f 47f
11:00 12ft 14s 11 16 mph 985.8mb 47f 47f
10:00 12.5ft 16s 13 18 mph 985.9mb 47f 47f
9:00 13ft 16s 16 20 mph 985.9mb 47f 47f
8:00 14ft 16s 18 25 mph 986.2mb 47f 48f
7:00 14ft 14s 22 31 mph 986.2mb 47f 47f
6:00 14.5ft 15s 25 34 mph 986.6mb 47f 47f
5:00 15.5ft 15s 29 36 mph 986.9mb 47f 47f
4:00 16.5ft 16s 29 36 mph 987.7mb 47f 46f
3:00 16ft 15s 27 34 mph 988.6mb 47f 46f
2:00 16.5ft 16s 27 34 mph 989.2mb 47f 46f
1:00 15ft 15s 22 31 mph 989.9mb 48f 46f
12:00 15.5ft 16s 20 25 mph 990.6mb 47f 47f
jeu. 01/19 11:00 15ft 17s 18 22 mph 991.1mb 47f 47f
10:00 14ft 12s 18 20 mph 991.3mb 47f 47f
9:00 13ft 13s 18 20 mph 991.6mb 47f 46f
8:00 13.5ft 12s 13 18 mph 991.8mb 47f 47f
7:00 12ft 12s 13 18 mph 992.1mb 47f 47f
6:00 11ft 11s 13 18 mph 992.4mb 48f 46f
5:00 11ft 14s 13 18 mph 992.8mb 47f 46f
4:00 12ft 13s 13 16 mph 993mb 47f 47f
3:00 11.5ft 10s 13 16 mph 992.9mb 47f 46f
2:00 11ft 10s 11 13 mph 993mb 47f 47f
1:00 12ft 13s 9 13 mph 993.4mb 47f 46f
12:00 13ft 11s 7 9 mph 993.7mb 47f 47f
11:00 13.5ft 10s 9 13 mph 994mb 47f 46f
10:00 13.5ft 12s 9 11 mph 993.8mb 47f 46f
9:00 13.5ft 12s 11 13 mph 993.2mb 47f 46f
8:00 14ft 12s 11 16 mph 992.6mb 48f 46f
7:00 15ft 11s 13 16 mph 991.9mb 48f 47f
6:00 15.5ft 12s 9 13 mph 991.5mb 48f 46f
5:00 14.5ft 12s 9 13 mph 990.8mb 48f 46f
4:00 15ft 13s 18 22 mph 990mb 48f 47f
3:00 15.5ft 13s 18 22 mph 989.5mb 48f 47f
2:00 15.5ft 12s 18 22 mph 988.9mb 48f 47f
1:00 16.5ft 12s 16 18 mph 988mb 48f 47f
12:00 16.5ft 12s 20 25 mph 986.8mb 48f 47f
mer. 01/18 11:00 19.5ft 14s 22 29 mph 985.7mb 48f 47f
10:00 20.5ft 12s 29 34 mph 984.3mb 48f 46f
9:00 21.5ft 13s 29 36 mph 982.9mb 48f 47f
8:00 20.5ft 12s 31 40 mph 981.8mb 48f 47f
7:00 19ft 12s 34 40 mph 981.1mb 48f 48f
6:00 21ft 13s 31 40 mph 980.5mb 48f 49f
5:00 19.5ft 13s 34 43 mph 980.2mb 48f 49f
4:00 17.5ft 10s 31 38 mph 980.3mb 48f 49f
3:00 16.5ft 13s 29 38 mph 980.4mb 48f 49f
2:00 16.5ft 12s 25 29 mph 980.7mb 48f 49f
1:00 17.5ft 13s 31 38 mph 978.7mb 48f 49f
12:00 16.5ft 12s 29 36 mph 975.9mb 48f 49f
11:00 16.5ft 12s 25 31 mph 975.3mb 48f 49f
10:00 17ft 12s 20 34 mph 977mb 48f 48f
9:00 17.5ft 11s 25 31 mph 978.1mb 48f 49f
8:00 18.5ft 12s 20 27 mph 979.9mb 48f 48f
7:00 19.5ft 12s 22 27 mph 981.6mb 47f 49f
6:00 17.5ft 11s 18 25 mph 983.1mb 47f 48f
5:00 19.5ft 11s 16 20 mph 984.7mb 47f 47f
4:00 17.5ft 12s 20 25 mph 984.9mb 47f 47f
3:00 17.5ft 10s 27 34 mph 984.1mb 47f 48f
2:00 16.5ft 11s 34 43 mph 982.8mb 47f 48f
1:00 16.5ft 11s 31 40 mph 982.4mb 47f 49f
12:00 16.5ft 12s 31 38 mph 982.2mb 47f 48f